Portada
METAR-TAF:

METAR-TAF

Aeropuertos :

Lárnaca, Chipre

Aeropuerto Internacional de Lárnaca

latitud: 34-53N, longitud: 033-38E, altitud: 2 m

Observación

El informe se hizo hace 25 minutos, a las 09:00 UTC
Viento 12 kt del sur
Temperatura 26°C
Humedad 39%
Presión 1014 hPa
Visibilidad 10 km o más
Escasas nubes a una altura de 4000 ft

METAR: LCLK 190900Z 19012KT 9999 FEW040 26/11 Q1014 NOSIG

Hora: 12:25 (09:25 UTC)

Pronóstico

El informe se hizo hace 3 horas y 55 minutos, a las 05:30 UTC
Pronóstico válido del 19 a las 06 UTC al 20 a las 06 UTC
Viento 6 kt del noroeste
Visibilidad 10 km o más
sin nubes por debajo de 1500 m y sin presencia de cumulonimbus.
Evolucionando progresivamente
del 19 a las 08 UTC al 19 a las 12 UTC
Viento 16 kt del sur-suroeste
Evolucionando progresivamente
del 19 a las 16 UTC al 19 a las 20 UTC
Viento 7 kt del oeste-noroeste

TAF: LCLK 190530Z 1906/2006 32006KT CAVOK BECMG 1908/1912 21016KT BECMG 1916/1920 30007KT

Observaciones y pronósticos meteorológicos de más de 4000 aeropuertos (mensajes METAR y TAF).

Los puntos amarillos y rojos representan las estaciones disponibles.

Ponga el ratón en el punto deseado para ver el nombre de la estación.

Haga clic para ver las observaciones y los pronósticos meteorológicos.

Para cambiar el mapa : haga clic en los botones verdes con una cruz de color negro para hacer un zoom, en el botón verde con un guión para alejar o en las flechas verdes para mapas adyacentes.


METAR-TAF: